sensor_id;sensor_type;location;lat;lon;timestamp;P1;durP1;ratioP1;P2;durP2;ratioP2
28545;SDS011;15749;49.606;8.738;2023-02-12T00:02:23;15.10;;;13.50;;
28545;SDS011;15749;49.606;8.738;2023-02-12T00:04:53;14.67;;;13.23;;
28545;SDS011;15749;49.606;8.738;2023-02-12T00:07:23;14.83;;;13.23;;
28545;SDS011;15749;49.606;8.738;2023-02-12T00:09:53;16.63;;;14.77;;
28545;SDS011;15749;49.606;8.738;2023-02-12T00:12:22;15.27;;;13.67;;
28545;SDS011;15749;49.606;8.738;2023-02-12T00:14:52;16.93;;;14.37;;
28545;SDS011;15749;49.606;8.738;2023-02-12T00:17:21;15.43;;;13.83;;
28545;SDS011;15749;49.606;8.738;2023-02-12T00:19:50;14.53;;;13.00;;
28545;SDS011;15749;49.606;8.738;2023-02-12T00:22:21;16.53;;;14.83;;
28545;SDS011;15749;49.606;8.738;2023-02-12T00:24:51;15.90;;;13.57;;
28545;SDS011;15749;49.606;8.738;2023-02-12T00:27:20;16.70;;;14.93;;
28545;SDS011;15749;49.606;8.738;2023-02-12T00:29:50;18.50;;;16.57;;
28545;SDS011;15749;49.606;8.738;2023-02-12T00:32:19;20.27;;;18.10;;
28545;SDS011;15749;49.606;8.738;2023-02-12T00:34:49;22.47;;;19.33;;
28545;SDS011;15749;49.606;8.738;2023-02-12T00:37:18;20.30;;;18.10;;
28545;SDS011;15749;49.606;8.738;2023-02-12T00:39:49;21.33;;;19.00;;
28545;SDS011;15749;49.606;8.738;2023-02-12T00:42:18;21.57;;;19.03;;
28545;SDS011;15749;49.606;8.738;2023-02-12T00:44:50;27.00;;;21.17;;
28545;SDS011;15749;49.606;8.738;2023-02-12T00:47:20;25.80;;;22.80;;
28545;SDS011;15749;49.606;8.738;2023-02-12T00:49:49;19.60;;;17.50;;
28545;SDS011;15749;49.606;8.738;2023-02-12T00:52:19;19.50;;;16.93;;
28545;SDS011;15749;49.606;8.738;2023-02-12T00:54:50;20.53;;;17.30;;
28545;SDS011;15749;49.606;8.738;2023-02-12T00:57:20;23.17;;;17.93;;
28545;SDS011;15749;49.606;8.738;2023-02-12T00:59:49;19.20;;;16.07;;
28545;SDS011;15749;49.606;8.738;2023-02-12T01:02:19;19.83;;;16.50;;
28545;SDS011;15749;49.606;8.738;2023-02-12T01:04:48;24.23;;;19.10;;
28545;SDS011;15749;49.606;8.738;2023-02-12T01:07:18;21.00;;;18.77;;
28545;SDS011;15749;49.606;8.738;2023-02-12T01:09:48;19.17;;;17.07;;
28545;SDS011;15749;49.606;8.738;2023-02-12T01:12:19;20.90;;;17.77;;
28545;SDS011;15749;49.606;8.738;2023-02-12T01:14:48;22.63;;;18.90;;
28545;SDS011;15749;49.606;8.738;2023-02-12T01:17:18;24.10;;;18.23;;
28545;SDS011;15749;49.606;8.738;2023-02-12T01:19:48;21.43;;;18.53;;
28545;SDS011;15749;49.606;8.738;2023-02-12T01:22:18;16.90;;;15.10;;
28545;SDS011;15749;49.606;8.738;2023-02-12T01:24:50;19.77;;;17.00;;
28545;SDS011;15749;49.606;8.738;2023-02-12T01:27:20;19.63;;;16.40;;
28545;SDS011;15749;49.606;8.738;2023-02-12T01:29:49;17.23;;;15.43;;
28545;SDS011;15749;49.606;8.738;2023-02-12T01:32:20;17.63;;;14.80;;
28545;SDS011;15749;49.606;8.738;2023-02-12T01:34:49;16.20;;;14.50;;
28545;SDS011;15749;49.606;8.738;2023-02-12T01:37:21;14.53;;;13.03;;
28545;SDS011;15749;49.606;8.738;2023-02-12T01:39:53;13.83;;;12.30;;
28545;SDS011;15749;49.606;8.738;2023-02-12T01:42:22;14.10;;;12.67;;
28545;SDS011;15749;49.606;8.738;2023-02-12T01:48:22;14.00;;;12.57;;
28545;SDS011;15749;49.606;8.738;2023-02-12T01:50:55;14.60;;;13.10;;
28545;SDS011;15749;49.606;8.738;2023-02-12T01:53:27;12.97;;;11.67;;
28545;SDS011;15749;49.606;8.738;2023-02-12T01:56:02;11.73;;;10.53;;
28545;SDS011;15749;49.606;8.738;2023-02-12T01:58:35;13.10;;;11.70;;
28545;SDS011;15749;49.606;8.738;2023-02-12T02:01:11;13.03;;;11.63;;
28545;SDS011;15749;49.606;8.738;2023-02-12T02:03:47;12.37;;;11.13;;
28545;SDS011;15749;49.606;8.738;2023-02-12T02:06:21;13.37;;;11.97;;
28545;SDS011;15749;49.606;8.738;2023-02-12T02:08:59;13.97;;;12.47;;
28545;SDS011;15749;49.606;8.738;2023-02-12T02:11:32;14.20;;;12.70;;
28545;SDS011;15749;49.606;8.738;2023-02-12T02:14:20;14.00;;;12.50;;
28545;SDS011;15749;49.606;8.738;2023-02-12T02:17:17;14.40;;;12.90;;
28545;SDS011;15749;49.606;8.738;2023-02-12T02:23:28;16.47;;;14.73;;
28545;SDS011;15749;49.606;8.738;2023-02-12T02:29:31;19.23;;;16.70;;
28545;SDS011;15749;49.606;8.738;2023-02-12T02:32:28;19.40;;;17.37;;
28545;SDS011;15749;49.606;8.738;2023-02-12T02:35:06;21.17;;;17.83;;
28545;SDS011;15749;49.606;8.738;2023-02-12T02:37:44;18.17;;;16.33;;
28545;SDS011;15749;49.606;8.738;2023-02-12T02:40:18;16.27;;;14.20;;
28545;SDS011;15749;49.606;8.738;2023-02-12T02:42:55;15.80;;;13.90;;
28545;SDS011;15749;49.606;8.738;2023-02-12T02:45:31;16.87;;;15.10;;
28545;SDS011;15749;49.606;8.738;2023-02-12T02:48:07;14.33;;;12.70;;
28545;SDS011;15749;49.606;8.738;2023-02-12T02:50:44;13.87;;;12.37;;
28545;SDS011;15749;49.606;8.738;2023-02-12T02:53:19;13.60;;;12.17;;
28545;SDS011;15749;49.606;8.738;2023-02-12T02:55:56;14.87;;;13.33;;
28545;SDS011;15749;49.606;8.738;2023-02-12T02:58:31;13.33;;;11.90;;
28545;SDS011;15749;49.606;8.738;2023-02-12T03:01:05;14.03;;;11.70;;
28545;SDS011;15749;49.606;8.738;2023-02-12T03:03:40;13.63;;;12.20;;
28545;SDS011;15749;49.606;8.738;2023-02-12T03:06:18;17.17;;;15.03;;
28545;SDS011;15749;49.606;8.738;2023-02-12T03:08:54;17.20;;;15.40;;
28545;SDS011;15749;49.606;8.738;2023-02-12T03:11:29;19.40;;;17.23;;
28545;SDS011;15749;49.606;8.738;2023-02-12T03:14:01;18.87;;;16.87;;
28545;SDS011;15749;49.606;8.738;2023-02-12T03:16:36;18.00;;;15.73;;
28545;SDS011;15749;49.606;8.738;2023-02-12T03:19:14;18.90;;;16.90;;
28545;SDS011;15749;49.606;8.738;2023-02-12T03:21:47;18.47;;;16.47;;
28545;SDS011;15749;49.606;8.738;2023-02-12T03:24:25;20.07;;;16.43;;
28545;SDS011;15749;49.606;8.738;2023-02-12T03:27:04;18.37;;;16.33;;
28545;SDS011;15749;49.606;8.738;2023-02-12T03:29:37;17.87;;;15.97;;
28545;SDS011;15749;49.606;8.738;2023-02-12T03:32:11;16.50;;;14.77;;
28545;SDS011;15749;49.606;8.738;2023-02-12T03:34:54;17.20;;;15.40;;
28545;SDS011;15749;49.606;8.738;2023-02-12T03:37:38;17.53;;;15.73;;
28545;SDS011;15749;49.606;8.738;2023-02-12T03:40:15;17.53;;;15.73;;
28545;SDS011;15749;49.606;8.738;2023-02-12T03:42:50;18.37;;;15.50;;
28545;SDS011;15749;49.606;8.738;2023-02-12T03:45:33;16.80;;;15.07;;
28545;SDS011;15749;49.606;8.738;2023-02-12T03:48:10;14.57;;;13.07;;
28545;SDS011;15749;49.606;8.738;2023-02-12T03:50:50;16.13;;;14.50;;
28545;SDS011;15749;49.606;8.738;2023-02-12T03:53:25;16.70;;;14.90;;
28545;SDS011;15749;49.606;8.738;2023-02-12T03:55:57;17.23;;;15.47;;
28545;SDS011;15749;49.606;8.738;2023-02-12T03:58:31;17.20;;;15.40;;
28545;SDS011;15749;49.606;8.738;2023-02-12T04:01:03;15.57;;;13.73;;
28545;SDS011;15749;49.606;8.738;2023-02-12T04:03:36;15.87;;;14.33;;
28545;SDS011;15749;49.606;8.738;2023-02-12T04:06:17;16.23;;;14.53;;
28545;SDS011;15749;49.606;8.738;2023-02-12T04:08:48;14.80;;;13.23;;
28545;SDS011;15749;49.606;8.738;2023-02-12T04:11:19;15.07;;;13.57;;
28545;SDS011;15749;49.606;8.738;2023-02-12T04:14:07;13.73;;;12.33;;
28545;SDS011;15749;49.606;8.738;2023-02-12T04:16:50;12.37;;;11.17;;
28545;SDS011;15749;49.606;8.738;2023-02-12T04:19:29;14.77;;;12.27;;
28545;SDS011;15749;49.606;8.738;2023-02-12T04:22:13;15.60;;;14.00;;
28545;SDS011;15749;49.606;8.738;2023-02-12T04:24:56;16.63;;;14.83;;
28545;SDS011;15749;49.606;8.738;2023-02-12T04:27:36;16.47;;;14.70;;
28545;SDS011;15749;49.606;8.738;2023-02-12T04:30:17;19.03;;;15.47;;
28545;SDS011;15749;49.606;8.738;2023-02-12T04:32:52;17.20;;;15.40;;
28545;SDS011;15749;49.606;8.738;2023-02-12T04:35:28;18.40;;;15.80;;
28545;SDS011;15749;49.606;8.738;2023-02-12T04:38:04;17.23;;;15.43;;
28545;SDS011;15749;49.606;8.738;2023-02-12T04:40:38;17.13;;;15.33;;
28545;SDS011;15749;49.606;8.738;2023-02-12T04:43:09;16.27;;;14.60;;
28545;SDS011;15749;49.606;8.738;2023-02-12T04:45:39;14.50;;;13.00;;
28545;SDS011;15749;49.606;8.738;2023-02-12T04:48:08;15.30;;;13.70;;
28545;SDS011;15749;49.606;8.738;2023-02-12T04:50:40;16.23;;;14.43;;
28545;SDS011;15749;49.606;8.738;2023-02-12T04:53:13;15.60;;;14.00;;
28545;SDS011;15749;49.606;8.738;2023-02-12T04:55:43;17.00;;;15.20;;
28545;SDS011;15749;49.606;8.738;2023-02-12T04:58:13;17.10;;;15.30;;
28545;SDS011;15749;49.606;8.738;2023-02-12T05:00:43;16.90;;;14.93;;
28545;SDS011;15749;49.606;8.738;2023-02-12T05:03:12;15.37;;;13.77;;
28545;SDS011;15749;49.606;8.738;2023-02-12T05:05:42;15.30;;;13.70;;
28545;SDS011;15749;49.606;8.738;2023-02-12T05:08:11;14.63;;;12.77;;
28545;SDS011;15749;49.606;8.738;2023-02-12T05:10:42;15.33;;;13.63;;
28545;SDS011;15749;49.606;8.738;2023-02-12T05:13:12;14.73;;;13.23;;
28545;SDS011;15749;49.606;8.738;2023-02-12T05:15:41;13.40;;;12.10;;
28545;SDS011;15749;49.606;8.738;2023-02-12T05:18:10;13.43;;;12.13;;
28545;SDS011;15749;49.606;8.738;2023-02-12T05:20:40;12.60;;;11.07;;
28545;SDS011;15749;49.606;8.738;2023-02-12T05:23:09;11.90;;;10.70;;
28545;SDS011;15749;49.606;8.738;2023-02-12T05:25:40;13.90;;;12.50;;
28545;SDS011;15749;49.606;8.738;2023-02-12T05:28:09;15.20;;;13.70;;
28545;SDS011;15749;49.606;8.738;2023-02-12T05:30:39;15.70;;;13.70;;
28545;SDS011;15749;49.606;8.738;2023-02-12T05:33:08;15.87;;;14.17;;
28545;SDS011;15749;49.606;8.738;2023-02-12T05:35:38;15.20;;;13.63;;
28545;SDS011;15749;49.606;8.738;2023-02-12T05:38:07;15.90;;;14.23;;
28545;SDS011;15749;49.606;8.738;2023-02-12T05:40:37;15.37;;;13.83;;
28545;SDS011;15749;49.606;8.738;2023-02-12T05:43:10;14.97;;;13.47;;
28545;SDS011;15749;49.606;8.738;2023-02-12T05:45:40;16.07;;;14.20;;
28545;SDS011;15749;49.606;8.738;2023-02-12T05:48:11;15.27;;;13.70;;
28545;SDS011;15749;49.606;8.738;2023-02-12T05:50:40;15.37;;;13.77;;
28545;SDS011;15749;49.606;8.738;2023-02-12T05:53:10;16.37;;;14.60;;
28545;SDS011;15749;49.606;8.738;2023-02-12T05:55:39;17.07;;;15.20;;
28545;SDS011;15749;49.606;8.738;2023-02-12T05:58:10;20.63;;;17.20;;
28545;SDS011;15749;49.606;8.738;2023-02-12T06:00:42;18.23;;;16.00;;
28545;SDS011;15749;49.606;8.738;2023-02-12T06:03:11;17.83;;;15.97;;
28545;SDS011;15749;49.606;8.738;2023-02-12T06:05:41;17.03;;;15.23;;
28545;SDS011;15749;49.606;8.738;2023-02-12T06:08:10;15.20;;;13.70;;
28545;SDS011;15749;49.606;8.738;2023-02-12T06:10:39;16.30;;;13.40;;
28545;SDS011;15749;49.606;8.738;2023-02-12T06:13:10;15.87;;;13.97;;
28545;SDS011;15749;49.606;8.738;2023-02-12T06:15:39;13.20;;;11.87;;
28545;SDS011;15749;49.606;8.738;2023-02-12T06:18:09;13.03;;;11.70;;
28545;SDS011;15749;49.606;8.738;2023-02-12T06:20:38;12.17;;;10.87;;
28545;SDS011;15749;49.606;8.738;2023-02-12T06:23:08;14.57;;;13.03;;
28545;SDS011;15749;49.606;8.738;2023-02-12T06:25:37;15.83;;;14.10;;
28545;SDS011;15749;49.606;8.738;2023-02-12T06:28:07;16.17;;;14.50;;
28545;SDS011;15749;49.606;8.738;2023-02-12T06:30:40;17.33;;;15.10;;
28545;SDS011;15749;49.606;8.738;2023-02-12T06:33:13;15.83;;;14.23;;
28545;SDS011;15749;49.606;8.738;2023-02-12T06:35:43;14.73;;;13.23;;
28545;SDS011;15749;49.606;8.738;2023-02-12T06:38:18;13.17;;;11.77;;
28545;SDS011;15749;49.606;8.738;2023-02-12T06:40:50;12.50;;;11.27;;
28545;SDS011;15749;49.606;8.738;2023-02-12T06:43:21;12.03;;;10.77;;
28545;SDS011;15749;49.606;8.738;2023-02-12T06:45:55;11.40;;;10.30;;
28545;SDS011;15749;49.606;8.738;2023-02-12T06:48:38;12.93;;;11.47;;
28545;SDS011;15749;49.606;8.738;2023-02-12T06:51:13;14.47;;;12.97;;
28545;SDS011;15749;49.606;8.738;2023-02-12T06:53:54;15.97;;;14.10;;
28545;SDS011;15749;49.606;8.738;2023-02-12T06:56:29;15.77;;;14.13;;
28545;SDS011;15749;49.606;8.738;2023-02-12T06:59:01;17.23;;;15.03;;
28545;SDS011;15749;49.606;8.738;2023-02-12T07:01:32;16.33;;;14.73;;
28545;SDS011;15749;49.606;8.738;2023-02-12T07:04:04;16.03;;;14.37;;
28545;SDS011;15749;49.606;8.738;2023-02-12T07:06:39;15.47;;;13.97;;
28545;SDS011;15749;49.606;8.738;2023-02-12T07:09:09;13.97;;;12.57;;
28545;SDS011;15749;49.606;8.738;2023-02-12T07:11:41;12.60;;;11.30;;
28545;SDS011;15749;49.606;8.738;2023-02-12T07:14:12;14.27;;;12.77;;
28545;SDS011;15749;49.606;8.738;2023-02-12T07:16:57;15.40;;;13.80;;
28545;SDS011;15749;49.606;8.738;2023-02-12T07:19:34;15.87;;;14.27;;
28545;SDS011;15749;49.606;8.738;2023-02-12T07:22:14;13.60;;;12.20;;
28545;SDS011;15749;49.606;8.738;2023-02-12T07:24:50;14.80;;;13.20;;
28545;SDS011;15749;49.606;8.738;2023-02-12T07:27:19;13.30;;;12.00;;
28545;SDS011;15749;49.606;8.738;2023-02-12T07:29:49;11.90;;;10.70;;
28545;SDS011;15749;49.606;8.738;2023-02-12T07:32:23;11.03;;;9.93;;
28545;SDS011;15749;49.606;8.738;2023-02-12T07:34:52;11.60;;;10.47;;
28545;SDS011;15749;49.606;8.738;2023-02-12T07:37:21;13.27;;;11.60;;
28545;SDS011;15749;49.606;8.738;2023-02-12T07:39:51;13.60;;;12.30;;
28545;SDS011;15749;49.606;8.738;2023-02-12T07:42:20;11.10;;;10.00;;
28545;SDS011;15749;49.606;8.738;2023-02-12T07:44:51;12.03;;;10.77;;
28545;SDS011;15749;49.606;8.738;2023-02-12T07:47:22;11.97;;;10.63;;
28545;SDS011;15749;49.606;8.738;2023-02-12T07:49:51;13.83;;;12.43;;
28545;SDS011;15749;49.606;8.738;2023-02-12T07:52:21;14.83;;;13.23;;
28545;SDS011;15749;49.606;8.738;2023-02-12T07:54:51;15.70;;;13.23;;
28545;SDS011;15749;49.606;8.738;2023-02-12T07:57:21;15.53;;;13.37;;
28545;SDS011;15749;49.606;8.738;2023-02-12T07:59:51;15.87;;;14.23;;
28545;SDS011;15749;49.606;8.738;2023-02-12T08:02:20;15.60;;;14.00;;
28545;SDS011;15749;49.606;8.738;2023-02-12T08:04:54;13.67;;;12.30;;
28545;SDS011;15749;49.606;8.738;2023-02-12T08:07:29;14.90;;;12.73;;
28545;SDS011;15749;49.606;8.738;2023-02-12T08:09:58;13.47;;;12.17;;
28545;SDS011;15749;49.606;8.738;2023-02-12T08:12:28;12.63;;;11.40;;
28545;SDS011;15749;49.606;8.738;2023-02-12T08:14:58;11.73;;;10.53;;
28545;SDS011;15749;49.606;8.738;2023-02-12T08:17:29;12.47;;;11.27;;
28545;SDS011;15749;49.606;8.738;2023-02-12T08:19:58;12.07;;;10.87;;
28545;SDS011;15749;49.606;8.738;2023-02-12T08:22:28;12.07;;;10.80;;
28545;SDS011;15749;49.606;8.738;2023-02-12T08:24:57;15.03;;;13.37;;
28545;SDS011;15749;49.606;8.738;2023-02-12T08:27:26;14.50;;;12.97;;
28545;SDS011;15749;49.606;8.738;2023-02-12T08:29:56;14.17;;;12.07;;
28545;SDS011;15749;49.606;8.738;2023-02-12T08:32:25;13.47;;;12.03;;
28545;SDS011;15749;49.606;8.738;2023-02-12T08:34:57;15.00;;;13.07;;
28545;SDS011;15749;49.606;8.738;2023-02-12T08:37:26;17.13;;;15.33;;
28545;SDS011;15749;49.606;8.738;2023-02-12T08:39:55;18.77;;;16.87;;
28545;SDS011;15749;49.606;8.738;2023-02-12T08:42:25;16.33;;;14.63;;
28545;SDS011;15749;49.606;8.738;2023-02-12T08:44:54;13.67;;;12.37;;
28545;SDS011;15749;49.606;8.738;2023-02-12T08:47:24;15.90;;;14.27;;
28545;SDS011;15749;49.606;8.738;2023-02-12T08:49:58;16.23;;;14.43;;
28545;SDS011;15749;49.606;8.738;2023-02-12T08:52:28;18.93;;;16.03;;
28545;SDS011;15749;49.606;8.738;2023-02-12T08:54:57;20.70;;;17.93;;
28545;SDS011;15749;49.606;8.738;2023-02-12T08:57:27;18.43;;;16.47;;
28545;SDS011;15749;49.606;8.738;2023-02-12T08:59:56;15.63;;;14.10;;
28545;SDS011;15749;49.606;8.738;2023-02-12T09:02:26;14.40;;;12.90;;
28545;SDS011;15749;49.606;8.738;2023-02-12T09:04:55;15.90;;;14.30;;
28545;SDS011;15749;49.606;8.738;2023-02-12T09:07:26;17.27;;;15.57;;
28545;SDS011;15749;49.606;8.738;2023-02-12T09:09:55;17.07;;;15.33;;
28545;SDS011;15749;49.606;8.738;2023-02-12T09:12:25;18.37;;;16.47;;
28545;SDS011;15749;49.606;8.738;2023-02-12T09:14:55;18.27;;;16.37;;
28545;SDS011;15749;49.606;8.738;2023-02-12T09:17:24;18.73;;;16.83;;
28545;SDS011;15749;49.606;8.738;2023-02-12T09:19:54;19.07;;;17.17;;
28545;SDS011;15749;49.606;8.738;2023-02-12T09:22:26;17.63;;;15.93;;
28545;SDS011;15749;49.606;8.738;2023-02-12T09:24:55;14.80;;;13.30;;
28545;SDS011;15749;49.606;8.738;2023-02-12T09:27:25;14.30;;;12.87;;
28545;SDS011;15749;49.606;8.738;2023-02-12T09:29:57;16.60;;;14.90;;
28545;SDS011;15749;49.606;8.738;2023-02-12T09:32:26;16.27;;;14.57;;
28545;SDS011;15749;49.606;8.738;2023-02-12T09:34:57;16.40;;;14.70;;
28545;SDS011;15749;49.606;8.738;2023-02-12T09:37:28;19.33;;;17.13;;
28545;SDS011;15749;49.606;8.738;2023-02-12T09:39:57;17.63;;;15.83;;
28545;SDS011;15749;49.606;8.738;2023-02-12T09:42:33;18.67;;;16.27;;
28545;SDS011;15749;49.606;8.738;2023-02-12T09:45:25;19.47;;;16.90;;
28545;SDS011;15749;49.606;8.738;2023-02-12T09:47:59;16.50;;;14.87;;
28545;SDS011;15749;49.606;8.738;2023-02-12T09:50:44;15.50;;;13.90;;
28545;SDS011;15749;49.606;8.738;2023-02-12T09:53:20;14.17;;;12.70;;
28545;SDS011;15749;49.606;8.738;2023-02-12T09:55:54;12.53;;;11.23;;
28545;SDS011;15749;49.606;8.738;2023-02-12T09:58:28;12.80;;;11.57;;
28545;SDS011;15749;49.606;8.738;2023-02-12T10:01:03;13.97;;;12.57;;
28545;SDS011;15749;49.606;8.738;2023-02-12T10:03:39;13.97;;;12.57;;
28545;SDS011;15749;49.606;8.738;2023-02-12T10:06:12;13.60;;;12.30;;
28545;SDS011;15749;49.606;8.738;2023-02-12T10:08:57;13.50;;;12.10;;
28545;SDS011;15749;49.606;8.738;2023-02-12T10:11:39;13.03;;;11.63;;
28545;SDS011;15749;49.606;8.738;2023-02-12T10:17:41;12.87;;;11.57;;
28545;SDS011;15749;49.606;8.738;2023-02-12T10:20:38;13.63;;;12.23;;
28545;SDS011;15749;49.606;8.738;2023-02-12T10:23:28;14.07;;;11.47;;
28545;SDS011;15749;49.606;8.738;2023-02-12T10:26:21;12.37;;;10.90;;
28545;SDS011;15749;49.606;8.738;2023-02-12T10:28:56;13.43;;;10.77;;
28545;SDS011;15749;49.606;8.738;2023-02-12T10:31:37;12.40;;;11.10;;
28545;SDS011;15749;49.606;8.738;2023-02-12T10:34:13;11.73;;;10.50;;
28545;SDS011;15749;49.606;8.738;2023-02-12T10:36:47;15.07;;;12.00;;
28545;SDS011;15749;49.606;8.738;2023-02-12T10:39:20;15.33;;;13.10;;
28545;SDS011;15749;49.606;8.738;2023-02-12T10:41:56;15.63;;;13.93;;
28545;SDS011;15749;49.606;8.738;2023-02-12T10:44:31;14.07;;;12.57;;
28545;SDS011;15749;49.606;8.738;2023-02-12T10:47:01;14.37;;;12.30;;
28545;SDS011;15749;49.606;8.738;2023-02-12T10:49:30;15.83;;;13.57;;
28545;SDS011;15749;49.606;8.738;2023-02-12T10:52:03;18.50;;;15.43;;
28545;SDS011;15749;49.606;8.738;2023-02-12T10:54:41;21.30;;;16.50;;
28545;SDS011;15749;49.606;8.738;2023-02-12T10:57:18;21.57;;;17.13;;
28545;SDS011;15749;49.606;8.738;2023-02-12T10:59:50;16.47;;;14.37;;
28545;SDS011;15749;49.606;8.738;2023-02-12T11:02:25;17.47;;;13.20;;
28545;SDS011;15749;49.606;8.738;2023-02-12T11:04:57;17.10;;;14.57;;
28545;SDS011;15749;49.606;8.738;2023-02-12T11:07:29;16.93;;;14.60;;
28545;SDS011;15749;49.606;8.738;2023-02-12T11:10:19;17.00;;;14.57;;
28545;SDS011;15749;49.606;8.738;2023-02-12T11:12:54;17.73;;;15.23;;
28545;SDS011;15749;49.606;8.738;2023-02-12T11:15:25;20.60;;;18.03;;
28545;SDS011;15749;49.606;8.738;2023-02-12T11:18:01;18.47;;;15.30;;
28545;SDS011;15749;49.606;8.738;2023-02-12T11:20:36;14.57;;;12.93;;
28545;SDS011;15749;49.606;8.738;2023-02-12T11:23:21;16.77;;;13.73;;
28545;SDS011;15749;49.606;8.738;2023-02-12T11:25:54;14.07;;;12.33;;
28545;SDS011;15749;49.606;8.738;2023-02-12T11:28:30;12.93;;;11.53;;
28545;SDS011;15749;49.606;8.738;2023-02-12T11:31:03;12.80;;;11.40;;
28545;SDS011;15749;49.606;8.738;2023-02-12T11:34:06;12.57;;;11.10;;
28545;SDS011;15749;49.606;8.738;2023-02-12T11:36:41;14.00;;;12.03;;
28545;SDS011;15749;49.606;8.738;2023-02-12T11:39:16;12.27;;;10.43;;
28545;SDS011;15749;49.606;8.738;2023-02-12T11:41:49;10.80;;;9.70;;
28545;SDS011;15749;49.606;8.738;2023-02-12T11:44:24;13.03;;;10.57;;
28545;SDS011;15749;49.606;8.738;2023-02-12T11:46:57;12.07;;;10.73;;
28545;SDS011;15749;49.606;8.738;2023-02-12T11:49:32;9.77;;;8.63;;
28545;SDS011;15749;49.606;8.738;2023-02-12T11:52:16;8.90;;;8.00;;
28545;SDS011;15749;49.606;8.738;2023-02-12T11:54:50;7.73;;;6.77;;
28545;SDS011;15749;49.606;8.738;2023-02-12T11:57:36;8.30;;;7.07;;
28545;SDS011;15749;49.606;8.738;2023-02-12T12:00:15;6.07;;;5.37;;
28545;SDS011;15749;49.606;8.738;2023-02-12T12:02:53;6.03;;;5.43;;
28545;SDS011;15749;49.606;8.738;2023-02-12T12:05:30;6.47;;;5.63;;
28545;SDS011;15749;49.606;8.738;2023-02-12T12:08:06;5.80;;;5.23;;
28545;SDS011;15749;49.606;8.738;2023-02-12T12:10:46;6.60;;;5.90;;
28545;SDS011;15749;49.606;8.738;2023-02-12T12:13:22;6.67;;;5.87;;
28545;SDS011;15749;49.606;8.738;2023-02-12T12:16:00;6.87;;;5.60;;
28545;SDS011;15749;49.606;8.738;2023-02-12T12:18:55;5.03;;;4.63;;
28545;SDS011;15749;49.606;8.738;2023-02-12T12:21:49;4.33;;;3.93;;
28545;SDS011;15749;49.606;8.738;2023-02-12T12:24:28;5.17;;;4.67;;
28545;SDS011;15749;49.606;8.738;2023-02-12T12:27:09;5.80;;;5.10;;
28545;SDS011;15749;49.606;8.738;2023-02-12T12:30:15;5.07;;;4.57;;
28545;SDS011;15749;49.606;8.738;2023-02-12T12:32:52;6.23;;;5.63;;
28545;SDS011;15749;49.606;8.738;2023-02-12T12:35:28;6.17;;;5.57;;
28545;SDS011;15749;49.606;8.738;2023-02-12T12:38:15;7.10;;;6.40;;
28545;SDS011;15749;49.606;8.738;2023-02-12T12:40:59;6.37;;;5.77;;
28545;SDS011;15749;49.606;8.738;2023-02-12T12:43:39;4.53;;;4.10;;
28545;SDS011;15749;49.606;8.738;2023-02-12T12:46:27;3.97;;;3.60;;
28545;SDS011;15749;49.606;8.738;2023-02-12T12:49:27;4.63;;;4.10;;
28545;SDS011;15749;49.606;8.738;2023-02-12T12:52:26;3.90;;;3.53;;
28545;SDS011;15749;49.606;8.738;2023-02-12T12:55:17;4.57;;;4.10;;
28545;SDS011;15749;49.606;8.738;2023-02-12T12:58:04;5.30;;;4.80;;
28545;SDS011;15749;49.606;8.738;2023-02-12T13:00:45;4.13;;;3.73;;
28545;SDS011;15749;49.606;8.738;2023-02-12T13:03:51;5.13;;;4.63;;
28545;SDS011;15749;49.606;8.738;2023-02-12T13:07:11;3.53;;;3.23;;
28545;SDS011;15749;49.606;8.738;2023-02-12T13:10:00;4.00;;;3.60;;
28545;SDS011;15749;49.606;8.738;2023-02-12T13:12:53;3.97;;;3.60;;
28545;SDS011;15749;49.606;8.738;2023-02-12T13:15:50;3.57;;;3.27;;
28545;SDS011;15749;49.606;8.738;2023-02-12T13:18:33;4.40;;;4.00;;
28545;SDS011;15749;49.606;8.738;2023-02-12T13:21:14;4.90;;;4.40;;
28545;SDS011;15749;49.606;8.738;2023-02-12T13:23:55;4.20;;;3.80;;
28545;SDS011;15749;49.606;8.738;2023-02-12T13:26:31;5.30;;;4.80;;
28545;SDS011;15749;49.606;8.738;2023-02-12T13:29:15;3.67;;;3.33;;
28545;SDS011;15749;49.606;8.738;2023-02-12T13:31:48;3.90;;;3.50;;
28545;SDS011;15749;49.606;8.738;2023-02-12T13:34:23;4.13;;;3.73;;
28545;SDS011;15749;49.606;8.738;2023-02-12T13:36:58;4.37;;;3.93;;
28545;SDS011;15749;49.606;8.738;2023-02-12T13:39:30;4.30;;;3.90;;
28545;SDS011;15749;49.606;8.738;2023-02-12T13:42:07;4.00;;;3.67;;
28545;SDS011;15749;49.606;8.738;2023-02-12T13:44:49;4.67;;;4.20;;
28545;SDS011;15749;49.606;8.738;2023-02-12T13:47:29;4.87;;;4.47;;
28545;SDS011;15749;49.606;8.738;2023-02-12T13:50:26;5.03;;;4.53;;
28545;SDS011;15749;49.606;8.738;2023-02-12T13:53:14;5.40;;;4.87;;
28545;SDS011;15749;49.606;8.738;2023-02-12T13:55:55;5.20;;;4.70;;
28545;SDS011;15749;49.606;8.738;2023-02-12T13:58:49;5.23;;;4.73;;
28545;SDS011;15749;49.606;8.738;2023-02-12T14:04:15;4.57;;;4.17;;
28545;SDS011;15749;49.606;8.738;2023-02-12T14:07:00;5.30;;;4.57;;
28545;SDS011;15749;49.606;8.738;2023-02-12T14:09:35;4.70;;;4.30;;
28545;SDS011;15749;49.606;8.738;2023-02-12T14:12:09;4.87;;;4.37;;
28545;SDS011;15749;49.606;8.738;2023-02-12T14:14:42;5.10;;;4.60;;
28545;SDS011;15749;49.606;8.738;2023-02-12T14:20:22;4.30;;;3.90;;
28545;SDS011;15749;49.606;8.738;2023-02-12T14:23:00;4.20;;;3.80;;
28545;SDS011;15749;49.606;8.738;2023-02-12T14:25:58;4.37;;;3.80;;
28545;SDS011;15749;49.606;8.738;2023-02-12T14:28:46;4.17;;;3.77;;
28545;SDS011;15749;49.606;8.738;2023-02-12T14:37:11;4.93;;;4.43;;
28545;SDS011;15749;49.606;8.738;2023-02-12T14:43:23;4.87;;;4.33;;
28545;SDS011;15749;49.606;8.738;2023-02-12T14:49:17;4.57;;;4.13;;
28545;SDS011;15749;49.606;8.738;2023-02-12T14:51:53;5.13;;;4.63;;
28545;SDS011;15749;49.606;8.738;2023-02-12T14:54:28;5.00;;;4.50;;
28545;SDS011;15749;49.606;8.738;2023-02-12T14:57:02;4.93;;;4.43;;
28545;SDS011;15749;49.606;8.738;2023-02-12T14:59:37;4.57;;;4.17;;
28545;SDS011;15749;49.606;8.738;2023-02-12T15:02:12;4.83;;;4.33;;
28545;SDS011;15749;49.606;8.738;2023-02-12T15:04:48;4.27;;;3.87;;
28545;SDS011;15749;49.606;8.738;2023-02-12T15:07:22;5.13;;;4.43;;
28545;SDS011;15749;49.606;8.738;2023-02-12T15:09:58;5.43;;;4.90;;
28545;SDS011;15749;49.606;8.738;2023-02-12T15:12:37;5.47;;;4.70;;
28545;SDS011;15749;49.606;8.738;2023-02-12T15:15:14;6.10;;;5.47;;
28545;SDS011;15749;49.606;8.738;2023-02-12T15:17:53;6.57;;;5.97;;
28545;SDS011;15749;49.606;8.738;2023-02-12T15:20:28;6.93;;;6.23;;
28545;SDS011;15749;49.606;8.738;2023-02-12T15:23:10;6.43;;;5.77;;
28545;SDS011;15749;49.606;8.738;2023-02-12T15:26:04;6.50;;;5.90;;
28545;SDS011;15749;49.606;8.738;2023-02-12T15:28:40;7.27;;;6.57;;
28545;SDS011;15749;49.606;8.738;2023-02-12T15:31:13;6.57;;;5.97;;
28545;SDS011;15749;49.606;8.738;2023-02-12T15:33:47;8.60;;;7.73;;
28545;SDS011;15749;49.606;8.738;2023-02-12T15:36:19;7.33;;;6.63;;
28545;SDS011;15749;49.606;8.738;2023-02-12T15:38:52;6.77;;;5.97;;
28545;SDS011;15749;49.606;8.738;2023-02-12T15:41:33;7.33;;;6.63;;
28545;SDS011;15749;49.606;8.738;2023-02-12T15:44:20;7.93;;;7.13;;
28545;SDS011;15749;49.606;8.738;2023-02-12T15:46:57;7.47;;;6.73;;
28545;SDS011;15749;49.606;8.738;2023-02-12T15:49:32;7.20;;;6.40;;